Time;durP1;ratioP1;P1;durP2;ratioP2;P2;SDS_P1;SDS_P2;PMS_P1;PMS_P2;Temp;Humidity;BMP_temperature;BMP_pressure;BME280_temperature;BME280_humidity;BME280_pressure;Samples;Min_cycle;Max_cycle;Signal;HPM_P1;HPM_P2
2020/12/15 00:01:44;;;;;;;29.17;10.53;;;;;;;2.25;100.00;95970.16;5038466;28;20212;-69
2020/12/15 00:04:11;;;;;;;32.27;10.37;;;;;;;2.22;100.00;95975.63;5039103;28;20205;-69
2020/12/15 00:06:37;;;;;;;20.43;9.93;;;;;;;2.15;100.00;95973.69;5038073;28;20584;-69
2020/12/15 00:09:03;;;;;;;26.77;9.53;;;;;;;2.03;100.00;95970.38;5038553;28;20209;-70
2020/12/15 00:11:29;;;;;;;50.83;10.97;;;;;;;2.00;100.00;95964.63;5039036;28;20225;-70
2020/12/15 00:13:55;;;;;;;35.57;11.80;;;;;;;2.03;100.00;95961.75;5038727;28;20207;-69
2020/12/15 00:16:21;;;;;;;52.73;12.27;;;;;;;2.12;100.00;95968.75;5038158;28;20617;-69
2020/12/15 00:18:47;;;;;;;27.97;11.07;;;;;;;2.05;100.00;95972.84;5038774;28;20217;-69
2020/12/15 00:21:19;;;;;;;26.70;10.13;;;;;;;2.05;100.00;95959.84;5038781;28;20217;-69
2020/12/15 00:23:45;;;;;;;18.17;9.33;;;;;;;2.05;100.00;95962.44;5038789;28;20213;-69
2020/12/15 00:26:11;;;;;;;17.37;9.33;;;;;;;2.01;100.00;95956.72;5037603;28;20209;-70
2020/12/15 00:28:38;;;;;;;26.20;9.97;;;;;;;1.91;100.00;95965.44;5038361;28;20299;-69
2020/12/15 00:31:04;;;;;;;32.23;11.00;;;;;;;2.03;100.00;95959.16;5038342;28;20716;-69
2020/12/15 00:33:30;;;;;;;15.90;8.80;;;;;;;2.14;100.00;95972.88;5038439;28;20209;-69
2020/12/15 00:35:56;;;;;;;22.43;8.57;;;;;;;2.02;100.00;95980.91;5037480;28;20205;-70
2020/12/15 00:38:23;;;;;;;44.67;9.33;;;;;;;2.05;100.00;95989.25;5038664;28;20263;-69
2020/12/15 00:40:49;;;;;;;28.60;9.17;;;;;;;1.80;100.00;95972.50;5037871;28;20234;-69
2020/12/15 00:43:15;;;;;;;31.03;9.03;;;;;;;1.83;100.00;95979.06;5037713;28;20207;-68
2020/12/15 00:45:41;;;;;;;40.23;9.60;;;;;;;1.91;100.00;95986.22;5037561;28;20307;-69
2020/12/15 00:48:07;;;;;;;32.63;9.13;;;;;;;1.80;100.00;95986.28;5038263;28;20283;-70
2020/12/15 00:50:33;;;;;;;52.27;9.27;;;;;;;1.89;100.00;95978.53;5037928;28;20700;-69
2020/12/15 00:52:59;;;;;;;25.97;9.00;;;;;;;1.83;100.00;95980.81;5038043;28;20664;-69
2020/12/15 00:55:26;;;;;;;25.80;8.90;;;;;;;1.87;100.00;95988.25;5037496;28;20208;-69
2020/12/15 00:57:52;;;;;;;14.47;8.50;;;;;;;1.97;100.00;95983.91;5037515;28;20213;-69
2020/12/15 01:00:18;;;;;;;17.53;8.73;;;;;;;1.96;100.00;95991.81;5037777;28;20282;-69
2020/12/15 01:02:44;;;;;;;15.73;8.53;;;;;;;2.02;100.00;96005.09;5038768;28;20275;-70
2020/12/15 01:05:10;;;;;;;16.00;8.83;;;;;;;2.11;100.00;95998.31;5036727;28;20660;-69
2020/12/15 01:07:35;;;;;;;16.43;8.87;;;;;;;2.09;100.00;95995.03;5037659;28;20209;-69
2020/12/15 01:10:02;;;;;;;19.20;10.20;;;;;;;2.24;100.00;95991.94;5038005;28;20920;-69
2020/12/15 01:12:29;;;;;;;19.07;9.33;;;;;;;2.18;100.00;95987.25;5037643;28;20214;-69
2020/12/15 01:14:55;;;;;;;24.20;9.90;;;;;;;2.21;100.00;95994.78;5037785;28;20845;-69
2020/12/15 01:17:21;;;;;;;26.20;9.67;;;;;;;2.26;100.00;95987.41;5037256;28;20251;-69
2020/12/15 01:19:47;;;;;;;22.50;9.30;;;;;;;2.29;100.00;95974.16;5037547;28;20641;-69
2020/12/15 01:22:13;;;;;;;22.83;9.67;;;;;;;2.27;100.00;95980.44;5037659;28;20247;-69
2020/12/15 01:24:39;;;;;;;19.63;8.97;;;;;;;2.23;100.00;95985.06;5037066;28;20228;-70
2020/12/15 01:27:05;;;;;;;29.60;8.93;;;;;;;2.04;100.00;95992.00;5036683;28;20295;-69
2020/12/15 01:29:32;;;;;;;21.80;9.20;;;;;;;2.24;100.00;95988.47;5037004;28;21241;-69
2020/12/15 01:32:00;;;;;;;21.00;8.90;;;;;;;2.18;100.00;95994.22;5037612;28;20241;-69
2020/12/15 01:34:26;;;;;;;18.00;9.43;;;;;;;2.31;100.00;95980.03;5036926;28;20212;-69
2020/12/15 01:36:52;;;;;;;14.93;8.60;;;;;;;2.22;100.00;95975.63;5036529;28;20287;-69
2020/12/15 01:39:18;;;;;;;18.17;9.00;;;;;;;2.21;100.00;95962.78;5037226;28;20284;-69
2020/12/15 01:41:44;;;;;;;16.03;8.90;;;;;;;2.39;100.00;95966.38;5037157;28;20664;-69
2020/12/15 01:44:10;;;;;;;16.87;8.83;;;;;;;2.43;100.00;95968.53;5037207;28;20207;-69
2020/12/15 01:46:37;;;;;;;16.17;8.97;;;;;;;2.51;100.00;95974.72;5036615;28;20224;-70
2020/12/15 01:49:04;;;;;;;19.57;8.70;;;;;;;2.34;100.00;95977.16;5037209;28;20220;-69
2020/12/15 01:51:31;;;;;;;15.20;8.77;;;;;;;2.49;100.00;95979.22;5036436;28;20229;-69
2020/12/15 01:53:58;;;;;;;14.20;8.43;;;;;;;2.47;100.00;95986.34;5036838;28;20770;-69
2020/12/15 01:56:25;;;;;;;15.60;9.13;;;;;;;2.39;100.00;95989.75;5036299;28;20283;-70
2020/12/15 01:58:54;;;;;;;16.90;9.03;;;;;;;2.48;100.00;95992.38;5036979;28;20209;-70
2020/12/15 02:01:20;;;;;;;15.57;9.00;;;;;;;2.45;100.00;95979.63;5037219;28;20213;-69
2020/12/15 02:03:47;;;;;;;13.73;8.67;;;;;;;2.49;100.00;95983.63;5037148;28;20228;-69
2020/12/15 02:06:13;;;;;;;14.47;8.77;;;;;;;2.43;100.00;95984.13;5035971;28;20201;-70
2020/12/15 02:08:42;;;;;;;16.03;9.00;;;;;;;2.41;100.00;95976.47;5036436;28;20684;-70
2020/12/15 02:11:08;;;;;;;16.23;8.67;;;;;;;2.35;100.00;95973.59;5037597;28;20236;-70
2020/12/15 02:13:34;;;;;;;13.47;7.83;;;;;;;2.43;100.00;95971.97;5037192;28;20208;-68
2020/12/15 02:16:00;;;;;;;15.53;8.70;;;;;;;2.35;100.00;95978.81;5036008;28;20638;-69
2020/12/15 02:18:27;;;;;;;15.57;9.00;;;;;;;2.43;100.00;95979.78;5036670;28;20205;-69
2020/12/15 02:20:54;;;;;;;15.57;8.97;;;;;;;2.47;100.00;95972.53;5036692;28;20224;-69
2020/12/15 02:23:21;;;;;;;16.83;8.87;;;;;;;2.42;100.00;95967.72;5036876;28;20208;-69
2020/12/15 02:25:47;;;;;;;17.23;9.13;;;;;;;2.43;100.00;95987.59;5035356;28;20763;-70
2020/12/15 02:28:13;;;;;;;15.57;9.20;;;;;;;2.28;100.00;95997.66;5036658;28;20211;-69
2020/12/15 02:30:39;;;;;;;15.83;8.93;;;;;;;2.31;100.00;95995.63;5036808;28;20676;-69
2020/12/15 02:33:05;;;;;;;17.67;9.33;;;;;;;2.31;100.00;95981.81;5036539;28;20197;-69
2020/12/15 02:35:31;;;;;;;17.43;9.37;;;;;;;2.43;100.00;95984.97;5035879;28;20743;-69
2020/12/15 02:37:57;;;;;;;19.10;9.67;;;;;;;2.42;100.00;95978.13;5036372;28;20205;-69
2020/12/15 02:40:24;;;;;;;18.23;9.90;;;;;;;2.34;100.00;95978.94;5036401;28;20229;-69
2020/12/15 02:42:50;;;;;;;16.77;9.23;;;;;;;2.47;100.00;95973.34;5036672;28;20205;-70
2020/12/15 02:45:16;;;;;;;16.60;9.30;;;;;;;2.51;100.00;95972.13;5037771;28;20203;-69
2020/12/15 02:47:42;;;;;;;15.20;9.03;;;;;;;2.63;100.00;95970.22;5040043;28;20288;-70
2020/12/15 02:50:16;;;;;;;28.10;12.20;;;;;;;2.46;100.00;95969.09;5040266;28;20232;-69
2020/12/15 02:52:42;;;;;;;25.57;11.87;;;;;;;2.48;100.00;95955.97;5040309;28;20212;-70
2020/12/15 02:55:07;;;;;;;17.13;9.03;;;;;;;2.46;100.00;95953.50;5039336;28;20298;-70
2020/12/15 02:57:34;;;;;;;13.40;8.13;;;;;;;2.32;100.00;95939.25;5040361;28;20237;-69
2020/12/15 03:00:00;;;;;;;12.70;7.90;;;;;;;2.42;100.00;95946.94;5040429;28;20224;-69
2020/12/15 03:02:26;;;;;;;13.03;8.00;;;;;;;2.45;100.00;95953.63;5040307;28;20205;-69
2020/12/15 03:04:52;;;;;;;12.63;7.93;;;;;;;2.54;100.00;95950.22;5039571;28;20213;-69
2020/12/15 03:07:18;;;;;;;12.53;7.47;;;;;;;2.55;100.00;95964.88;5039119;28;20258;-69
2020/12/15 03:09:44;;;;;;;12.13;7.47;;;;;;;2.57;100.00;95971.59;5040414;28;20252;-69
2020/12/15 03:12:10;;;;;;;13.50;8.20;;;;;;;2.52;100.00;95958.16;5039886;28;20290;-69
2020/12/15 03:14:37;;;;;;;15.63;8.50;;;;;;;2.39;100.00;95956.78;5039872;28;20599;-69
2020/12/15 03:17:03;;;;;;;13.80;7.90;;;;;;;2.38;100.00;95954.31;5039500;28;20205;-70
2020/12/15 03:19:29;;;;;;;12.47;7.63;;;;;;;2.44;100.00;95952.84;5039427;28;20820;-69
2020/12/15 03:21:55;;;;;;;13.57;8.03;;;;;;;2.40;100.00;95943.63;5040457;28;20267;-70
2020/12/15 03:24:20;;;;;;;13.63;7.70;;;;;;;2.36;100.00;95935.44;5039616;28;20259;-69
2020/12/15 03:26:46;;;;;;;11.73;7.83;;;;;;;2.31;100.00;95937.63;5038858;28;20216;-69
2020/12/15 03:29:12;;;;;;;14.27;8.13;;;;;;;2.13;100.00;95914.06;5039508;28;20726;-69
2020/12/15 03:31:39;;;;;;;14.53;8.20;;;;;;;1.88;100.00;95891.19;5040184;28;20338;-69
2020/12/15 03:34:05;;;;;;;14.63;8.30;;;;;;;1.95;100.00;95873.28;5039778;28;20205;-69
2020/12/15 03:36:31;;;;;;;13.20;8.00;;;;;;;1.97;100.00;95872.19;5038558;28;20201;-70
2020/12/15 03:38:57;;;;;;;12.70;8.07;;;;;;;1.93;100.00;95880.38;5039555;28;21221;-69
2020/12/15 03:41:23;;;;;;;14.37;8.20;;;;;;;2.01;100.00;95961.06;5038216;28;20591;-69
2020/12/15 03:43:49;;;;;;;11.80;7.80;;;;;;;2.07;100.00;95924.97;5038966;28;20267;-69
2020/12/15 03:46:15;;;;;;;15.03;9.00;;;;;;;2.06;100.00;95928.56;5039347;28;20628;-69
2020/12/15 03:48:42;;;;;;;16.83;9.63;;;;;;;2.17;100.00;95925.00;5038958;28;20316;-69
2020/12/15 03:51:08;;;;;;;14.83;9.00;;;;;;;2.24;100.00;95913.94;5038818;28;20232;-68
2020/12/15 03:53:34;;;;;;;12.97;8.30;;;;;;;2.34;100.00;95914.75;5039171;28;20215;-70
2020/12/15 03:56:00;;;;;;;13.37;8.13;;;;;;;2.36;100.00;95922.44;5038200;28;20224;-69
2020/12/15 03:58:26;;;;;;;13.20;7.70;;;;;;;2.37;100.00;95916.25;5038988;28;20204;-69
2020/12/15 04:00:52;;;;;;;11.13;7.40;;;;;;;2.34;100.00;95908.75;5038987;28;20221;-70
2020/12/15 04:03:18;;;;;;;12.77;8.37;;;;;;;2.38;100.00;95886.72;5039245;28;20248;-69
2020/12/15 04:05:45;;;;;;;12.87;8.50;;;;;;;2.40;100.00;95896.84;5038331;28;20728;-69
2020/12/15 04:08:11;;;;;;;16.07;8.43;;;;;;;2.44;100.00;95908.63;5038484;28;20650;-69
2020/12/15 04:10:37;;;;;;;13.03;8.30;;;;;;;2.28;100.00;95898.88;5038917;28;20216;-69
2020/12/15 04:13:03;;;;;;;13.87;9.17;;;;;;;2.13;100.00;95882.06;5038978;28;20205;-69
2020/12/15 04:15:29;;;;;;;13.87;8.50;;;;;;;2.25;100.00;95886.16;5038258;28;20208;-69
2020/12/15 04:17:55;;;;;;;13.93;8.57;;;;;;;2.19;100.00;95905.72;5038737;28;20298;-69
2020/12/15 04:20:21;;;;;;;14.87;9.40;;;;;;;2.12;100.00;95899.41;5038840;28;20271;-69
2020/12/15 04:22:48;;;;;;;16.73;9.27;;;;;;;2.14;100.00;95899.28;5038471;28;20321;-69
2020/12/15 04:25:14;;;;;;;15.63;9.03;;;;;;;2.21;100.00;95927.19;5037652;28;20205;-69
2020/12/15 04:27:40;;;;;;;16.00;9.67;;;;;;;2.25;100.00;95910.38;5039143;28;20220;-69
2020/12/15 04:30:07;;;;;;;16.10;9.03;;;;;;;2.46;100.00;95903.28;5038219;28;20221;-69
2020/12/15 04:32:33;;;;;;;17.30;9.27;;;;;;;2.18;100.00;95880.69;5038980;28;20249;-70
2020/12/15 04:34:59;;;;;;;14.27;8.90;;;;;;;2.34;100.00;95867.16;5038654;28;20205;-69
2020/12/15 04:37:25;;;;;;;15.83;9.03;;;;;;;1.90;100.00;95850.28;5037760;28;20212;-69
2020/12/15 04:39:52;;;;;;;15.30;8.93;;;;;;;1.87;100.00;95865.31;5037933;28;20663;-69
2020/12/15 04:42:18;;;;;;;15.00;9.03;;;;;;;2.06;100.00;95884.38;5039060;28;20206;-69
2020/12/15 04:44:46;;;;;;;16.53;8.73;;;;;;;2.20;100.00;95883.16;5038262;28;20284;-69
2020/12/15 04:47:16;;;;;;;13.70;8.93;;;;;;;2.20;100.00;95903.94;5037417;28;20204;-69
2020/12/15 04:49:55;;;;;;;13.87;9.07;;;;;;;2.28;100.00;95909.28;5038349;28;20732;-70
2020/12/15 04:52:23;;;;;;;14.87;9.50;;;;;;;2.40;100.00;95903.81;5038514;28;20290;-70
2020/12/15 04:54:51;;;;;;;12.30;7.80;;;;;;;2.39;100.00;95893.56;5038229;28;20237;-69
2020/12/15 04:57:21;;;;;;;15.67;8.70;;;;;;;2.33;100.00;95896.69;5037782;28;20212;-70
2020/12/15 04:59:49;;;;;;;14.13;8.80;;;;;;;2.34;100.00;95901.75;5038082;28;20256;-69
2020/12/15 05:02:16;;;;;;;14.17;9.07;;;;;;;2.34;100.00;95880.16;5037945;28;20197;-69
2020/12/15 05:04:42;;;;;;;14.80;8.50;;;;;;;2.45;100.00;95905.06;5037498;28;20623;-70
2020/12/15 05:07:10;;;;;;;14.73;9.27;;;;;;;2.36;100.00;95893.84;5037122;28;20221;-69
2020/12/15 05:09:37;;;;;;;14.60;8.60;;;;;;;2.18;100.00;95916.25;5036614;28;20225;-69
2020/12/15 05:12:03;;;;;;;13.33;8.57;;;;;;;2.04;100.00;95914.03;5037839;28;20221;-69
2020/12/15 05:14:30;;;;;;;14.80;8.40;;;;;;;2.01;100.00;95906.50;5038157;28;20208;-69
2020/12/15 05:16:56;;;;;;;13.10;7.97;;;;;;;2.12;100.00;95909.00;5036867;28;20228;-69
2020/12/15 05:19:22;;;;;;;15.30;8.93;;;;;;;2.04;100.00;95911.44;5037218;28;20676;-69
2020/12/15 05:21:56;;;;;;;13.97;8.60;;;;;;;2.04;100.00;95907.06;5037513;28;20655;-69
2020/12/15 05:24:27;;;;;;;14.43;8.50;;;;;;;2.11;100.00;95913.34;5037670;28;20204;-70
2020/12/15 05:26:54;;;;;;;15.67;9.53;;;;;;;2.17;100.00;95915.44;5036479;28;20205;-70
2020/12/15 05:29:21;;;;;;;22.03;11.70;;;;;;;2.22;100.00;95922.84;5037604;28;20201;-69
2020/12/15 05:31:49;;;;;;;23.93;13.00;;;;;;;2.21;100.00;95931.59;5037207;28;20727;-69
2020/12/15 05:34:22;;;;;;;19.20;11.90;;;;;;;2.20;100.00;95929.94;5037685;28;20684;-69
2020/12/15 05:36:50;;;;;;;14.40;8.53;;;;;;;2.18;100.00;95931.84;5036585;28;20201;-70
2020/12/15 05:39:16;;;;;;;15.43;8.67;;;;;;;2.16;100.00;95921.56;5037276;28;20251;-69
2020/12/15 05:41:42;;;;;;;14.20;9.13;;;;;;;2.18;100.00;95930.06;5037351;28;20201;-69
2020/12/15 05:44:10;;;;;;;13.00;8.23;;;;;;;2.15;100.00;95932.09;5037622;28;20205;-69
2020/12/15 05:46:46;;;;;;;15.73;9.23;;;;;;;2.08;100.00;95934.41;5036007;28;20750;-70
2020/12/15 05:49:14;;;;;;;15.60;9.43;;;;;;;2.20;100.00;95943.78;5037622;28;20189;-70
2020/12/15 05:51:41;;;;;;;16.70;8.97;;;;;;;2.16;100.00;95933.75;5036961;28;20343;-69
2020/12/15 05:54:11;;;;;;;16.17;9.40;;;;;;;2.18;100.00;95939.66;5037319;28;20201;-70
2020/12/15 05:56:38;;;;;;;15.27;9.77;;;;;;;2.17;100.00;95940.59;5036196;28;20197;-69
2020/12/15 05:59:20;;;;;;;15.23;9.20;;;;;;;2.08;100.00;95952.59;5037009;28;20282;-69
2020/12/15 06:01:48;;;;;;;14.63;9.10;;;;;;;2.00;100.00;95938.66;5037309;28;20204;-69
2020/12/15 06:04:15;;;;;;;16.17;9.13;;;;;;;2.13;100.00;95939.22;5037059;28;20201;-70
2020/12/15 06:06:41;;;;;;;11.60;8.03;;;;;;;2.17;100.00;95951.00;5036279;28;20209;-69
2020/12/15 06:09:09;;;;;;;13.33;8.17;;;;;;;2.13;100.00;95941.81;5037019;28;20232;-70
2020/12/15 06:11:38;;;;;;;12.57;8.13;;;;;;;2.19;100.00;95962.91;5036798;28;20252;-70
2020/12/15 06:14:04;;;;;;;15.70;8.50;;;;;;;2.21;100.00;95957.56;5036665;28;20203;-69
2020/12/15 06:16:30;;;;;;;13.57;8.40;;;;;;;2.21;100.00;95947.19;5036132;28;20411;-70
2020/12/15 06:18:56;;;;;;;14.83;8.37;;;;;;;2.26;100.00;95945.00;5036970;28;21105;-70
2020/12/15 06:21:23;;;;;;;13.00;8.60;;;;;;;2.14;100.00;95941.69;5036268;28;20221;-69
2020/12/15 06:23:58;;;;;;;13.03;8.03;;;;;;;2.11;100.00;95935.94;5036471;28;20591;-69
2020/12/15 06:26:25;;;;;;;14.30;8.73;;;;;;;2.16;100.00;95939.75;5036721;28;21269;-69
2020/12/15 06:29:00;;;;;;;14.70;8.50;;;;;;;2.15;100.00;95945.09;5036819;28;20208;-70
2020/12/15 06:31:26;;;;;;;17.87;10.03;;;;;;;2.05;100.00;95955.47;5036385;28;20224;-70
2020/12/15 06:33:57;;;;;;;19.83;10.57;;;;;;;1.96;100.00;95958.03;5036917;28;20197;-71
2020/12/15 06:36:26;;;;;;;20.60;11.03;;;;;;;1.91;100.00;95944.66;5037512;28;20208;-71
2020/12/15 06:38:52;;;;;;;24.60;12.47;;;;;;;1.89;100.00;95946.53;5037701;28;20827;-71
2020/12/15 06:41:21;;;;;;;24.90;13.40;;;;;;;1.89;100.00;95942.16;5037908;28;20228;-71
2020/12/15 06:43:47;;;;;;;26.77;12.43;;;;;;;1.72;100.00;95934.19;5037401;28;20214;-70
2020/12/15 06:46:13;;;;;;;21.63;11.57;;;;;;;1.64;100.00;95946.97;5036944;28;20688;-71
2020/12/15 06:48:39;;;;;;;25.73;12.60;;;;;;;1.62;100.00;95954.09;5037567;28;20217;-71
2020/12/15 06:51:06;;;;;;;24.03;11.90;;;;;;;1.44;100.00;95949.63;5036903;28;20235;-71
2020/12/15 06:53:32;;;;;;;25.27;12.07;;;;;;;1.29;100.00;95961.31;5037464;28;20216;-71
2020/12/15 06:55:59;;;;;;;19.57;11.23;;;;;;;1.45;100.00;95966.84;5036725;28;20209;-71
2020/12/15 06:58:25;;;;;;;22.93;11.50;;;;;;;1.29;100.00;95958.72;5037431;28;20205;-71
2020/12/15 07:00:51;;;;;;;20.63;11.63;;;;;;;1.34;100.00;95946.97;5036924;28;20229;-70
2020/12/15 07:03:32;;;;;;;21.87;11.27;;;;;;;1.35;100.00;95951.22;5036899;28;20208;-70
2020/12/15 07:06:07;;;;;;;24.53;11.57;;;;;;;1.41;100.00;95950.72;5036406;28;20208;-70
2020/12/15 07:08:35;;;;;;;47.93;12.40;;;;;;;1.39;100.00;95962.19;5037143;28;20312;-71
2020/12/15 07:11:01;;;;;;;65.57;13.70;;;;;;;1.40;100.00;95959.47;5036222;28;20295;-71
2020/12/15 07:13:27;;;;;;;59.60;15.17;;;;;;;1.37;100.00;95951.91;5036695;28;20672;-70
2020/12/15 07:15:53;;;;;;;64.63;14.27;;;;;;;1.35;100.00;95950.41;5036240;28;20231;-70
2020/12/15 07:18:19;;;;;;;50.40;13.70;;;;;;;1.38;100.00;95953.56;5037483;28;20232;-70
2020/12/15 07:20:45;;;;;;;67.17;14.90;;;;;;;1.38;100.00;95950.97;5036303;28;20601;-71
2020/12/15 07:23:11;;;;;;;89.73;16.07;;;;;;;1.32;100.00;95950.66;5036985;28;20619;-70
2020/12/15 07:25:38;;;;;;;82.50;15.17;;;;;;;1.40;100.00;95948.22;5036415;28;20232;-70
2020/12/15 07:28:04;;;;;;;54.67;15.30;;;;;;;1.48;100.00;95957.03;5036072;28;20201;-71
2020/12/15 07:30:30;;;;;;;125.87;16.70;;;;;;;1.34;100.00;95959.97;5036849;28;21329;-71
2020/12/15 07:32:56;;;;;;;60.00;15.43;;;;;;;1.45;100.00;95957.31;5038890;28;20339;-70
2020/12/15 07:35:24;;;;;;;78.93;16.30;;;;;;;1.45;100.00;95959.06;5039573;28;20208;-70
2020/12/15 07:37:54;;;;;;;108.37;16.40;;;;;;;1.39;100.00;95963.00;5040643;28;20212;-70
2020/12/15 07:40:21;;;;;;;56.50;16.03;;;;;;;1.47;100.00;95964.94;5040263;28;20220;-70
2020/12/15 07:42:54;;;;;;;115.50;15.83;;;;;;;1.46;100.00;95964.13;5039590;28;20223;-71
2020/12/15 07:45:22;;;;;;;68.77;15.37;;;;;;;1.44;100.00;95978.16;5039588;28;20205;-71
2020/12/15 07:47:48;;;;;;;73.90;15.90;;;;;;;1.54;100.00;95984.25;5040534;28;20205;-71
2020/12/15 07:50:15;;;;;;;84.03;24.33;;;;;;;1.61;100.00;95980.19;5040326;28;20228;-70
2020/12/15 07:52:41;;;;;;;98.43;25.03;;;;;;;1.58;100.00;95981.28;5040159;28;20710;-70
2020/12/15 07:55:09;;;;;;;93.57;21.50;;;;;;;1.55;100.00;95981.50;5037974;28;20853;-70
2020/12/15 07:57:36;;;;;;;78.23;15.43;;;;;;;1.50;100.00;95999.28;5039057;28;20802;-70
2020/12/15 08:00:09;;;;;;;74.07;25.60;;;;;;;1.55;100.00;96001.47;5039775;28;20238;-70
2020/12/15 08:02:35;;;;;;;139.87;40.93;;;;;;;1.63;100.00;96004.25;5040214;28;20208;-70
2020/12/15 08:05:10;;;;;;;103.10;39.33;;;;;;;1.64;100.00;96004.09;5039567;28;20200;-70
2020/12/15 08:07:54;;;;;;;92.23;36.13;;;;;;;1.73;100.00;96012.91;5039314;28;20808;-70
2020/12/15 08:10:26;;;;;;;124.40;46.17;;;;;;;1.80;100.00;96020.06;5039982;28;20724;-70
2020/12/15 08:12:52;;;;;;;102.00;43.40;;;;;;;1.90;100.00;96013.13;5039710;28;20229;-70
2020/12/15 08:15:19;;;;;;;68.30;21.83;;;;;;;1.84;100.00;95998.06;5039358;28;20227;-71
2020/12/15 08:17:48;;;;;;;38.83;16.87;;;;;;;1.95;100.00;95992.78;5039825;28;20695;-71
2020/12/15 08:20:15;;;;;;;50.93;16.57;;;;;;;2.07;100.00;95992.53;5040269;28;20227;-70
2020/12/15 08:22:42;;;;;;;49.47;18.97;;;;;;;2.03;100.00;96004.16;5039477;28;21142;-71
2020/12/15 08:25:10;;;;;;;63.83;17.93;;;;;;;1.89;100.00;96006.28;5039074;28;20211;-71
2020/12/15 08:27:36;;;;;;;69.47;19.53;;;;;;;1.80;100.00;96020.06;5040253;28;20201;-71
2020/12/15 08:30:13;;;;;;;72.00;16.37;;;;;;;1.74;100.00;96015.38;5039369;28;20645;-70
2020/12/15 08:32:45;;;;;;;45.90;16.10;;;;;;;1.59;100.00;96021.88;5039570;28;20231;-70
2020/12/15 08:35:11;;;;;;;67.40;16.03;;;;;;;1.63;100.00;96028.44;5038535;28;20223;-70
2020/12/15 08:37:38;;;;;;;43.37;15.77;;;;;;;1.70;100.00;96026.97;5039357;28;21014;-70
2020/12/15 08:40:07;;;;;;;45.87;13.93;;;;;;;1.63;100.00;96030.22;5039024;28;20286;-71
2020/12/15 08:42:33;;;;;;;44.20;14.03;;;;;;;1.53;100.00;96032.75;5038905;28;20204;-71
2020/12/15 08:45:10;;;;;;;50.83;14.83;;;;;;;1.50;100.00;96030.44;5038795;28;20208;-71
2020/12/15 08:47:43;;;;;;;36.57;14.00;;;;;;;1.50;100.00;96035.63;5038547;28;20675;-71
2020/12/15 08:50:11;;;;;;;51.37;15.83;;;;;;;1.60;100.00;96036.47;5039836;28;20270;-71
2020/12/15 08:52:37;;;;;;;37.67;14.60;;;;;;;1.66;100.00;96035.97;5039225;28;20232;-71
2020/12/15 08:55:02;;;;;;;27.73;14.00;;;;;;;1.83;100.00;96036.22;5038522;28;20674;-70
2020/12/15 08:57:28;;;;;;;39.47;16.50;;;;;;;1.95;100.00;96036.97;5039257;28;20250;-71
2020/12/15 08:59:54;;;;;;;56.63;16.33;;;;;;;2.01;100.00;96039.00;5039770;28;20316;-71
2020/12/15 09:02:21;;;;;;;40.13;16.93;;;;;;;1.94;100.00;96032.69;5039260;28;20996;-71
2020/12/15 09:04:48;;;;;;;48.30;16.53;;;;;;;2.17;100.00;96029.78;5038953;28;20239;-71
2020/12/15 09:07:17;;;;;;;34.10;15.33;;;;;;;2.27;100.00;96022.84;5038442;28;20581;-71
2020/12/15 09:09:43;;;;;;;55.97;15.83;;;;;;;2.37;100.00;96034.09;5038734;28;20290;-70
2020/12/15 09:12:10;;;;;;;40.10;17.47;;;;;;;2.50;100.00;96027.69;5039446;28;20899;-71
2020/12/15 09:14:36;;;;;;;57.00;16.97;;;;;;;2.58;100.00;96035.66;5039652;28;20205;-71
2020/12/15 09:17:02;;;;;;;67.77;22.53;;;;;;;2.79;100.00;96033.75;5038431;28;20251;-71
2020/12/15 09:19:28;;;;;;;46.77;21.50;;;;;;;2.85;100.00;96030.63;5039468;28;20197;-71
2020/12/15 09:21:57;;;;;;;38.47;18.07;;;;;;;2.93;100.00;96035.97;5039075;28;20201;-70
2020/12/15 09:24:24;;;;;;;34.50;17.03;;;;;;;3.04;100.00;96033.22;5038945;28;21011;-71
2020/12/15 09:26:50;;;;;;;30.97;15.63;;;;;;;3.22;100.00;96034.19;5038281;28;20962;-71
2020/12/15 09:29:16;;;;;;;30.87;16.53;;;;;;;3.37;100.00;96038.00;5038539;28;20201;-71
2020/12/15 09:31:43;;;;;;;32.87;16.87;;;;;;;3.20;100.00;96039.53;5039993;28;20324;-71
2020/12/15 09:34:09;;;;;;;34.07;16.43;;;;;;;3.32;100.00;96035.00;5039234;28;20295;-71
2020/12/15 09:36:36;;;;;;;32.17;15.97;;;;;;;3.30;100.00;96040.34;5038371;28;20959;-71
2020/12/15 09:39:04;;;;;;;32.73;15.43;;;;;;;3.57;100.00;96031.84;5038866;28;20624;-71
2020/12/15 09:41:34;;;;;;;27.10;15.10;;;;;;;3.69;100.00;96037.56;5039326;28;20243;-71
2020/12/15 09:44:00;;;;;;;28.00;15.43;;;;;;;3.86;100.00;96034.22;5038136;28;20228;-71
2020/12/15 09:46:26;;;;;;;30.57;16.40;;;;;;;3.95;100.00;96032.56;5037658;28;20258;-71
2020/12/15 09:48:52;;;;;;;30.20;16.20;;;;;;;4.23;100.00;96029.84;5037320;28;20220;-70
2020/12/15 09:51:18;;;;;;;31.00;16.73;;;;;;;4.36;100.00;96027.72;5036703;28;20605;-70
2020/12/15 09:53:44;;;;;;;33.93;17.20;;;;;;;4.47;100.00;96030.16;5036767;28;20228;-70
2020/12/15 09:56:15;;;;;;;28.67;15.63;;;;;;;4.50;100.00;96032.47;5035793;28;20239;-70
2020/12/15 09:58:41;;;;;;;26.33;14.57;;;;;;;4.53;100.00;96024.31;5036525;28;20209;-70
2020/12/15 10:01:07;;;;;;;25.67;13.87;;;;;;;4.46;100.00;96029.31;5036513;28;20344;-70
2020/12/15 10:03:33;;;;;;;26.47;15.40;;;;;;;4.69;100.00;96030.56;5036975;28;20221;-70
2020/12/15 10:05:59;;;;;;;26.23;14.87;;;;;;;4.63;100.00;96017.28;5036170;28;21004;-70
2020/12/15 10:08:25;;;;;;;28.47;15.50;;;;;;;4.76;100.00;96025.56;5036272;28;20252;-71
2020/12/15 10:10:51;;;;;;;28.83;16.10;;;;;;;4.94;100.00;96024.63;5035884;28;20256;-70
2020/12/15 10:13:18;;;;;;;26.97;15.17;;;;;;;4.91;100.00;96025.75;5036703;28;20253;-70
2020/12/15 10:15:44;;;;;;;24.90;14.37;;;;;;;4.91;100.00;96030.13;5035995;28;20302;-70
2020/12/15 10:18:12;;;;;;;27.20;14.60;;;;;;;4.87;100.00;96034.84;5036405;28;20207;-70
2020/12/15 10:20:38;;;;;;;25.77;15.17;;;;;;;4.80;100.00;96027.75;5036313;28;21235;-70
2020/12/15 10:23:04;;;;;;;30.63;16.53;;;;;;;4.72;100.00;96030.25;5036747;28;20289;-70
2020/12/15 10:25:30;;;;;;;27.03;14.10;;;;;;;4.81;100.00;96028.56;5035288;28;20201;-70
2020/12/15 10:27:56;;;;;;;27.67;14.50;;;;;;;4.82;100.00;96042.31;5036806;28;20208;-70
2020/12/15 10:30:23;;;;;;;27.97;14.63;;;;;;;4.81;100.00;96034.59;5036362;28;20223;-70
2020/12/15 10:32:49;;;;;;;23.47;12.87;;;;;;;4.82;100.00;96038.03;5036149;28;20229;-70
2020/12/15 10:35:15;;;;;;;23.07;14.07;;;;;;;4.85;100.00;96036.78;5036337;28;20197;-70
2020/12/15 10:37:41;;;;;;;25.77;14.43;;;;;;;4.83;100.00;96043.91;5036064;28;20201;-70
2020/12/15 10:40:08;;;;;;;25.07;13.77;;;;;;;4.88;100.00;96033.84;5036096;28;20220;-70
2020/12/15 10:42:36;;;;;;;28.67;14.70;;;;;;;4.90;100.00;96029.31;5036698;28;20259;-70
2020/12/15 10:45:02;;;;;;;26.03;14.20;;;;;;;4.88;100.00;96028.63;5036394;28;20212;-70
2020/12/15 10:47:30;;;;;;;25.87;14.33;;;;;;;4.82;100.00;96025.00;5035867;28;20197;-70
2020/12/15 10:49:56;;;;;;;26.33;14.50;;;;;;;4.84;100.00;96018.66;5034677;28;20283;-70
2020/12/15 10:52:22;;;;;;;26.80;13.97;;;;;;;4.86;100.00;96016.69;5036407;28;20220;-70
2020/12/15 10:54:48;;;;;;;27.83;14.80;;;;;;;4.91;100.00;95998.81;5036467;28;20302;-71
2020/12/15 10:57:14;;;;;;;30.07;15.80;;;;;;;4.94;100.00;95999.34;5035716;28;20224;-71
2020/12/15 10:59:40;;;;;;;32.83;15.73;;;;;;;5.10;100.00;95998.66;5035632;28;20225;-71
2020/12/15 11:02:06;;;;;;;25.17;14.37;;;;;;;5.23;100.00;95993.88;5036589;28;20271;-71
2020/12/15 11:04:33;;;;;;;28.87;15.40;;;;;;;5.34;100.00;96007.53;5035891;28;20201;-71
2020/12/15 11:06:59;;;;;;;26.70;14.20;;;;;;;5.25;100.00;96008.44;5036427;28;20209;-71
2020/12/15 11:09:25;;;;;;;23.20;13.73;;;;;;;5.27;100.00;96011.72;5040064;28;20286;-71
2020/12/15 11:11:51;;;;;;;27.20;14.90;;;;;;;5.33;100.00;96007.69;5039594;28;20225;-72
2020/12/15 11:14:17;;;;;;;31.13;15.53;;;;;;;5.33;100.00;96013.72;5039942;28;20233;-72
2020/12/15 11:16:43;;;;;;;25.20;14.77;;;;;;;5.23;100.00;96002.56;5039442;28;20209;-71
2020/12/15 11:19:09;;;;;;;29.97;16.20;;;;;;;5.20;100.00;95995.00;5039514;28;20297;-71
2020/12/15 11:21:36;;;;;;;29.10;16.60;;;;;;;5.20;100.00;95983.75;5039118;28;20719;-72